Time;durP1;ratioP1;P1;durP2;ratioP2;P2;SDS_P1;SDS_P2;PMS_P1;PMS_P2;Temp;Humidity;BMP_temperature;BMP_pressure;BME280_temperature;BME280_humidity;BME280_pressure;Samples;Min_cycle;Max_cycle;Signal;HPM_P1;HPM_P2
2023/05/05 00:01:07;;;;;;;7.75;6.95;;;;;;;;;;5110509;28;20120;-60
2023/05/05 00:03:34;;;;;;;8.10;7.25;;;;;;;;;;5110669;28;20035;-61
2023/05/05 00:06:00;;;;;;;7.90;7.07;;;;;;;;;;5110657;28;20020;-61
2023/05/05 00:08:27;;;;;;;7.90;7.03;;;;;;;;;;5110170;28;20551;-61
2023/05/05 00:10:53;;;;;;;7.80;7.10;;;;;;;;;;5110280;28;20063;-61
2023/05/05 00:13:20;;;;;;;8.18;7.38;;;;;;;;;;5110517;28;20081;-61
2023/05/05 00:15:47;;;;;;;8.15;7.35;;;;;;;;;;5110101;28;20065;-63
2023/05/05 00:18:15;;;;;;;7.85;7.05;;;;;;;;;;5109125;28;20019;-62
2023/05/05 00:20:41;;;;;;;8.68;6.95;;;;;;;;;;5110084;28;20042;-63
2023/05/05 00:23:07;;;;;;;7.53;6.82;;;;;;;;;;5110128;28;20035;-63
2023/05/05 00:25:33;;;;;;;6.70;6.05;;;;;;;;;;5110910;28;20019;-62
2023/05/05 00:27:59;;;;;;;8.15;7.18;;;;;;;;;;5114514;27;20057;-61
2023/05/05 00:30:26;;;;;;;10.25;7.35;;;;;;;;;;5113017;28;20055;-63
2023/05/05 00:32:52;;;;;;;7.53;6.82;;;;;;;;;;5113642;28;20055;-61
2023/05/05 00:35:18;;;;;;;6.95;6.25;;;;;;;;;;5114007;27;20375;-61
2023/05/05 00:37:44;;;;;;;7.50;6.80;;;;;;;;;;5113614;28;20031;-61
2023/05/05 00:40:10;;;;;;;7.72;7.03;;;;;;;;;;5112707;28;20032;-61
2023/05/05 00:42:40;;;;;;;7.13;6.30;;;;;;;;;;5113518;28;20027;-61
2023/05/05 00:45:06;;;;;;;7.40;6.25;;;;;;;;;;5113855;27;20027;-61
2023/05/05 00:47:32;;;;;;;7.50;6.68;;;;;;;;;;5113771;28;20391;-61
2023/05/05 00:49:58;;;;;;;7.32;6.63;;;;;;;;;;5113873;28;20028;-61
2023/05/05 00:52:25;;;;;;;7.35;6.65;;;;;;;;;;5113675;28;20540;-61
2023/05/05 00:54:51;;;;;;;7.45;6.75;;;;;;;;;;5112973;28;20513;-61
2023/05/05 00:57:18;;;;;;;7.80;6.97;;;;;;;;;;5113367;28;20392;-60
2023/05/05 00:59:44;;;;;;;8.30;7.50;;;;;;;;;;5113377;28;20073;-61
2023/05/05 01:02:10;;;;;;;6.65;5.95;;;;;;;;;;5113431;28;20026;-61
2023/05/05 01:04:36;;;;;;;7.10;6.40;;;;;;;;;;5113259;28;20020;-64
2023/05/05 01:07:25;;;;;;;7.22;6.30;;;;;;;;;;5113765;28;20054;-60
2023/05/05 01:10:03;;;;;;;7.72;7.00;;;;;;;;;;5112069;28;20036;-60
2023/05/05 01:12:46;;;;;;;6.43;5.82;;;;;;;;;;5113688;28;20324;-61
2023/05/05 01:15:11;;;;;;;7.20;6.50;;;;;;;;;;5113319;28;20527;-61
2023/05/05 01:17:47;;;;;;;7.30;6.60;;;;;;;;;;5112489;28;20110;-61
2023/05/05 01:20:23;;;;;;;7.45;6.63;;;;;;;;;;5113412;28;20417;-61
2023/05/05 01:22:52;;;;;;;6.97;6.28;;;;;;;;;;5112251;28;20055;-61
2023/05/05 01:25:37;;;;;;;7.05;6.10;;;;;;;;;;5111691;28;20020;-61
2023/05/05 01:28:12;;;;;;;6.47;5.88;;;;;;;;;;5112989;28;20081;-61
2023/05/05 01:31:00;;;;;;;6.53;5.93;;;;;;;;;;5112731;28;20030;-61
2023/05/05 01:33:28;;;;;;;6.97;6.20;;;;;;;;;;5113362;28;20122;-65
2023/05/05 01:35:56;;;;;;;6.28;5.68;;;;;;;;;;5112256;28;20458;-60
2023/05/05 01:38:24;;;;;;;7.07;6.40;;;;;;;;;;5111630;28;20093;-60
2023/05/05 01:41:13;;;;;;;7.90;6.20;;;;;;;;;;5112478;28;20026;-64
2023/05/05 01:43:42;;;;;;;7.18;6.28;;;;;;;;;;5104576;28;20510;-60
2023/05/05 01:46:08;;;;;;;6.63;6.00;;;;;;;;;;5112527;28;20038;-62
2023/05/05 01:48:35;;;;;;;6.50;5.90;;;;;;;;;;5112345;28;20027;-62
2023/05/05 01:51:02;;;;;;;6.32;5.65;;;;;;;;;;5112365;28;20031;-60
2023/05/05 01:53:28;;;;;;;6.80;6.03;;;;;;;;;;5112524;28;20034;-60
2023/05/05 01:55:55;;;;;;;6.80;6.07;;;;;;;;;;5112038;28;20071;-63
2023/05/05 01:58:21;;;;;;;7.18;6.30;;;;;;;;;;5112353;28;20078;-60
2023/05/05 02:00:48;;;;;;;7.32;6.47;;;;;;;;;;5112207;28;20122;-61
2023/05/05 02:03:15;;;;;;;7.38;6.53;;;;;;;;;;5112283;28;20055;-66
2023/05/05 02:05:42;;;;;;;6.80;6.13;;;;;;;;;;5111482;28;20486;-61
2023/05/05 02:08:08;;;;;;;6.45;5.85;;;;;;;;;;5112173;28;20537;-61
2023/05/05 02:10:35;;;;;;;7.07;6.38;;;;;;;;;;5111983;28;20031;-62
2023/05/05 02:13:01;;;;;;;6.65;5.88;;;;;;;;;;5112383;28;20023;-61
2023/05/05 02:15:28;;;;;;;7.35;5.43;;;;;;;;;;5110900;28;20024;-61
2023/05/05 02:17:55;;;;;;;6.88;6.18;;;;;;;;;;5111681;28;20052;-60
2023/05/05 02:20:24;;;;;;;7.50;6.80;;;;;;;;;;5111385;28;20034;-60
2023/05/05 02:22:50;;;;;;;6.82;6.13;;;;;;;;;;5111254;28;20112;-60
2023/05/05 02:25:16;;;;;;;9.20;5.97;;;;;;;;;;5111939;28;20023;-61
2023/05/05 02:27:43;;;;;;;6.32;5.70;;;;;;;;;;5111655;28;20111;-60
2023/05/05 02:30:11;;;;;;;7.00;6.10;;;;;;;;;;5111826;28;20020;-65
2023/05/05 02:32:39;;;;;;;6.68;5.97;;;;;;;;;;5111453;28;20034;-61
2023/05/05 02:35:10;;;;;;;6.75;6.05;;;;;;;;;;5111537;28;20015;-65
2023/05/05 02:37:36;;;;;;;6.65;5.95;;;;;;;;;;5110851;28;20392;-65
2023/05/05 02:40:04;;;;;;;6.47;5.88;;;;;;;;;;5112013;28;20024;-60
2023/05/05 02:42:35;;;;;;;6.72;6.03;;;;;;;;;;5111396;28;20488;-60
2023/05/05 02:45:10;;;;;;;6.47;5.85;;;;;;;;;;5111891;28;20023;-60
2023/05/05 02:47:37;;;;;;;6.75;5.85;;;;;;;;;;5111397;28;20051;-61
2023/05/05 02:50:04;;;;;;;6.82;6.13;;;;;;;;;;5111296;28;20024;-60
2023/05/05 02:52:30;;;;;;;6.15;5.55;;;;;;;;;;5110990;28;20072;-61
2023/05/05 02:54:56;;;;;;;6.18;5.45;;;;;;;;;;5110778;28;20019;-66
2023/05/05 02:57:26;;;;;;;7.85;5.93;;;;;;;;;;5111448;28;20031;-60
2023/05/05 03:00:05;;;;;;;6.93;6.22;;;;;;;;;;5109664;28;20019;-60
2023/05/05 03:02:43;;;;;;;8.15;6.28;;;;;;;;;;5111020;28;20063;-61
2023/05/05 03:05:12;;;;;;;6.15;5.55;;;;;;;;;;5111216;28;20027;-62
2023/05/05 03:07:40;;;;;;;6.82;6.13;;;;;;;;;;5111024;28;20491;-60
2023/05/05 03:10:11;;;;;;;7.40;6.50;;;;;;;;;;5111277;28;20502;-61
2023/05/05 03:12:43;;;;;;;6.82;6.15;;;;;;;;;;5110978;28;20024;-60
2023/05/05 03:15:10;;;;;;;6.28;5.30;;;;;;;;;;5110520;28;20118;-65
2023/05/05 03:17:36;;;;;;;5.60;4.85;;;;;;;;;;5110893;28;20032;-60
2023/05/05 03:20:03;;;;;;;6.90;5.60;;;;;;;;;;5111364;28;20059;-62
2023/05/05 03:22:29;;;;;;;6.10;5.50;;;;;;;;;;5111377;28;20028;-60
2023/05/05 03:24:55;;;;;;;6.97;5.95;;;;;;;;;;5109683;28;20024;-61
2023/05/05 03:27:21;;;;;;;5.63;5.10;;;;;;;;;;5110519;28;20097;-62
2023/05/05 03:29:47;;;;;;;6.47;5.88;;;;;;;;;;5110807;28;20098;-61
2023/05/05 03:32:13;;;;;;;5.35;4.85;;;;;;;;;;5111039;28;20027;-60
2023/05/05 03:34:39;;;;;;;6.22;5.43;;;;;;;;;;5110775;28;20031;-60
2023/05/05 03:37:05;;;;;;;6.20;5.50;;;;;;;;;;5110245;28;20118;-61
2023/05/05 03:39:31;;;;;;;6.50;5.72;;;;;;;;;;5111242;28;20024;-60
2023/05/05 03:41:57;;;;;;;6.07;5.40;;;;;;;;;;5110652;28;20024;-61
2023/05/05 03:44:23;;;;;;;6.63;6.03;;;;;;;;;;5110333;28;20027;-64
2023/05/05 03:46:49;;;;;;;6.15;5.50;;;;;;;;;;5110633;28;20368;-63
2023/05/05 03:49:15;;;;;;;6.97;6.13;;;;;;;;;;5110861;28;20055;-60
2023/05/05 03:51:41;;;;;;;8.60;5.80;;;;;;;;;;5110686;28;20027;-61
2023/05/05 03:54:07;;;;;;;7.22;6.18;;;;;;;;;;5110806;28;20529;-65
2023/05/05 03:56:33;;;;;;;6.47;5.70;;;;;;;;;;5111037;28;20040;-60
2023/05/05 03:58:59;;;;;;;5.88;5.07;;;;;;;;;;5110357;28;20055;-62
2023/05/05 04:01:25;;;;;;;6.30;5.70;;;;;;;;;;5112588;28;20069;-61
2023/05/05 04:03:51;;;;;;;5.93;5.22;;;;;;;;;;5114389;28;20024;-60
2023/05/05 04:06:17;;;;;;;5.72;5.13;;;;;;;;;;5114701;28;20115;-60
2023/05/05 04:08:43;;;;;;;6.47;5.78;;;;;;;;;;5114322;28;20428;-61
2023/05/05 04:11:09;;;;;;;6.00;5.40;;;;;;;;;;5114478;28;20034;-60
2023/05/05 04:13:35;;;;;;;5.65;5.05;;;;;;;;;;5114172;28;20371;-60
2023/05/05 04:16:01;;;;;;;5.78;5.13;;;;;;;;;;5113875;28;20043;-60
2023/05/05 04:18:27;;;;;;;5.65;5.15;;;;;;;;;;5114400;28;20073;-66
2023/05/05 04:20:53;;;;;;;5.78;5.15;;;;;;;;;;5113704;28;20105;-62
2023/05/05 04:23:19;;;;;;;5.82;5.13;;;;;;;;;;5114230;28;20066;-65
2023/05/05 04:25:45;;;;;;;6.15;5.28;;;;;;;;;;5114024;28;20055;-60
2023/05/05 04:28:12;;;;;;;7.07;5.72;;;;;;;;;;5114313;28;20431;-61
2023/05/05 04:30:38;;;;;;;6.07;5.15;;;;;;;;;;5113857;28;20024;-60
2023/05/05 04:33:05;;;;;;;6.78;5.07;;;;;;;;;;5114248;28;20144;-61
2023/05/05 04:35:31;;;;;;;7.03;5.55;;;;;;;;;;5113456;28;20502;-60
2023/05/05 04:37:57;;;;;;;6.40;5.03;;;;;;;;;;5112570;28;20027;-61
2023/05/05 04:40:25;;;;;;;5.45;4.95;;;;;;;;;;5113960;28;20091;-61
2023/05/05 04:42:51;;;;;;;5.22;4.72;;;;;;;;;;5112825;28;20068;-61
2023/05/05 04:45:17;;;;;;;7.05;4.82;;;;;;;;;;5113977;28;20067;-61
2023/05/05 04:47:43;;;;;;;5.57;4.85;;;;;;;;;;5113580;28;20028;-61
2023/05/05 04:50:10;;;;;;;5.32;4.82;;;;;;;;;;5113676;28;20020;-60
2023/05/05 04:52:36;;;;;;;5.75;5.18;;;;;;;;;;5113313;28;20054;-61
2023/05/05 04:55:02;;;;;;;5.60;4.88;;;;;;;;;;5113911;28;20027;-61
2023/05/05 04:57:29;;;;;;;5.35;4.85;;;;;;;;;;5112787;28;20043;-62
2023/05/05 04:59:55;;;;;;;4.95;4.45;;;;;;;;;;5113369;28;20054;-61
2023/05/05 05:02:21;;;;;;;5.20;4.40;;;;;;;;;;5113123;28;20505;-60
2023/05/05 05:04:47;;;;;;;5.32;4.25;;;;;;;;;;5112832;28;20027;-65
2023/05/05 05:07:13;;;;;;;5.82;4.95;;;;;;;;;;5112936;28;20077;-61
2023/05/05 05:09:40;;;;;;;5.50;4.70;;;;;;;;;;5113399;28;20019;-62
2023/05/05 05:12:06;;;;;;;6.80;6.13;;;;;;;;;;5112891;28;20035;-61
2023/05/05 05:14:39;;;;;;;6.28;5.03;;;;;;;;;;5113506;28;20016;-61
2023/05/05 05:17:06;;;;;;;6.40;5.05;;;;;;;;;;5112471;28;20050;-61
2023/05/05 05:19:32;;;;;;;5.68;5.18;;;;;;;;;;5113948;28;20023;-61
2023/05/05 05:21:58;;;;;;;6.63;4.95;;;;;;;;;;5113304;27;20035;-60
2023/05/05 05:24:24;;;;;;;5.03;4.53;;;;;;;;;;5113368;28;20050;-61
2023/05/05 05:26:50;;;;;;;5.75;5.07;;;;;;;;;;5112354;28;20035;-61
2023/05/05 05:29:17;;;;;;;7.05;5.05;;;;;;;;;;5112638;28;20118;-60
2023/05/05 05:31:43;;;;;;;6.90;5.25;;;;;;;;;;5112121;28;20027;-61
2023/05/05 05:34:09;;;;;;;5.38;4.75;;;;;;;;;;5112073;28;20028;-63
2023/05/05 05:36:35;;;;;;;4.80;4.30;;;;;;;;;;5113025;28;20067;-64
2023/05/05 05:39:01;;;;;;;5.57;4.10;;;;;;;;;;5113668;28;20076;-62
2023/05/05 05:41:27;;;;;;;5.15;4.65;;;;;;;;;;5113364;28;20027;-62
2023/05/05 05:43:53;;;;;;;5.43;4.32;;;;;;;;;;5113017;28;20540;-61
2023/05/05 05:46:19;;;;;;;8.23;4.82;;;;;;;;;;5113303;28;20051;-62
2023/05/05 05:48:45;;;;;;;6.00;4.38;;;;;;;;;;5112172;27;20129;-61
2023/05/05 05:51:11;;;;;;;5.70;4.95;;;;;;;;;;5113476;27;20159;-62
2023/05/05 05:53:37;;;;;;;5.22;4.32;;;;;;;;;;5114880;27;20462;-65
2023/05/05 05:56:03;;;;;;;6.13;4.88;;;;;;;;;;5113219;27;20034;-62
2023/05/05 05:58:29;;;;;;;5.38;4.45;;;;;;;;;;5114001;27;20076;-62
2023/05/05 06:00:55;;;;;;;6.22;4.40;;;;;;;;;;5110781;27;20061;-63
2023/05/05 06:03:21;;;;;;;5.43;4.25;;;;;;;;;;5113690;27;20035;-62
2023/05/05 06:05:47;;;;;;;10.00;4.20;;;;;;;;;;5127597;27;20368;-62
2023/05/05 06:08:13;;;;;;;5.25;4.22;;;;;;;;;;5120540;27;20029;-62
2023/05/05 06:10:39;;;;;;;4.82;4.00;;;;;;;;;;5132222;27;20810;-62
2023/05/05 06:13:05;;;;;;;5.22;3.83;;;;;;;;;;5117005;27;20036;-64
2023/05/05 06:15:31;;;;;;;4.57;3.97;;;;;;;;;;5129161;27;20030;-62
2023/05/05 06:17:57;;;;;;;5.30;4.32;;;;;;;;;;5117101;27;20030;-62
2023/05/05 06:20:23;;;;;;;4.88;3.92;;;;;;;;;;5110988;27;20550;-62
2023/05/05 06:22:49;;;;;;;5.00;4.00;;;;;;;;;;5118373;27;20094;-62
2023/05/05 06:25:16;;;;;;;4.85;4.25;;;;;;;;;;5116557;27;20118;-63
2023/05/05 06:27:42;;;;;;;6.65;4.43;;;;;;;;;;5111574;27;20055;-62
2023/05/05 06:30:08;;;;;;;6.93;4.40;;;;;;;;;;5117884;27;20434;-62
2023/05/05 06:32:34;;;;;;;6.40;3.85;;;;;;;;;;5114198;27;20083;-62
2023/05/05 06:35:00;;;;;;;4.45;3.95;;;;;;;;;;5112173;27;20018;-63
2023/05/05 06:37:26;;;;;;;5.38;3.85;;;;;;;;;;5110584;27;20035;-61
2023/05/05 06:39:52;;;;;;;7.82;4.18;;;;;;;;;;5112586;27;20024;-62
2023/05/05 06:42:18;;;;;;;7.97;5.05;;;;;;;;;;5115057;27;20034;-62
2023/05/05 06:44:44;;;;;;;6.60;4.10;;;;;;;;;;5114950;27;20401;-62
2023/05/05 06:47:10;;;;;;;7.47;4.45;;;;;;;;;;5123672;27;20031;-66
2023/05/05 06:49:36;;;;;;;6.43;4.22;;;;;;;;;;5125443;27;20027;-63
2023/05/05 06:52:02;;;;;;;5.20;4.32;;;;;;;;;;5132435;27;20031;-62
2023/05/05 06:54:28;;;;;;;6.82;4.38;;;;;;;;;;5131989;27;20030;-63
2023/05/05 06:56:54;;;;;;;7.07;4.00;;;;;;;;;;5126126;27;20058;-63
2023/05/05 06:59:20;;;;;;;5.88;4.07;;;;;;;;;;5114998;27;20425;-65
2023/05/05 07:01:46;;;;;;;4.78;4.20;;;;;;;;;;5115058;27;20042;-63
2023/05/05 07:04:12;;;;;;;7.05;4.43;;;;;;;;;;5109817;28;20015;-63
2023/05/05 07:06:38;;;;;;;7.43;4.75;;;;;;;;;;5111238;28;20024;-62
2023/05/05 07:09:04;;;;;;;5.75;4.05;;;;;;;;;;5111743;28;20053;-61
2023/05/05 07:11:30;;;;;;;7.10;4.13;;;;;;;;;;5110418;28;20497;-62
2023/05/05 07:13:56;;;;;;;5.45;3.53;;;;;;;;;;5110694;28;20094;-62
2023/05/05 07:16:24;;;;;;;8.20;4.35;;;;;;;;;;5110970;28;20384;-62
2023/05/05 07:18:49;;;;;;;6.28;3.72;;;;;;;;;;5111382;28;20024;-62
2023/05/05 07:21:15;;;;;;;9.35;4.30;;;;;;;;;;5111553;28;20035;-62
2023/05/05 07:23:42;;;;;;;5.22;4.10;;;;;;;;;;5111539;28;20055;-62
2023/05/05 07:26:08;;;;;;;8.68;4.90;;;;;;;;;;5112714;28;20116;-63
2023/05/05 07:28:34;;;;;;;4.35;3.78;;;;;;;;;;5114098;28;20051;-62
2023/05/05 07:31:00;;;;;;;8.35;4.40;;;;;;;;;;5111643;28;20376;-61
2023/05/05 07:33:26;;;;;;;6.78;3.78;;;;;;;;;;5113871;28;20028;-61
2023/05/05 07:35:52;;;;;;;9.00;4.35;;;;;;;;;;5116519;27;20558;-66
2023/05/05 07:38:18;;;;;;;7.45;4.05;;;;;;;;;;5117217;27;20019;-62
2023/05/05 07:40:45;;;;;;;5.45;3.85;;;;;;;;;;5117124;27;20032;-66
2023/05/05 07:43:11;;;;;;;6.13;4.10;;;;;;;;;;5119012;27;20076;-66
2023/05/05 07:45:37;;;;;;;4.70;3.80;;;;;;;;;;5117452;27;20479;-66
2023/05/05 07:48:03;;;;;;;5.47;3.72;;;;;;;;;;5116575;27;20073;-66
2023/05/05 07:50:29;;;;;;;6.75;3.83;;;;;;;;;;5115042;28;20019;-62
2023/05/05 07:52:55;;;;;;;6.88;3.70;;;;;;;;;;5117224;27;20028;-66
2023/05/05 07:55:21;;;;;;;5.65;3.67;;;;;;;;;;5114956;28;20027;-64
2023/05/05 07:57:48;;;;;;;5.78;3.65;;;;;;;;;;5114115;28;20503;-65
2023/05/05 08:00:14;;;;;;;6.00;3.45;;;;;;;;;;5117733;27;20027;-63
2023/05/05 08:02:41;;;;;;;6.70;4.00;;;;;;;;;;5113448;28;20123;-66
2023/05/05 08:05:07;;;;;;;6.15;3.78;;;;;;;;;;5115153;27;20085;-62
2023/05/05 08:07:35;;;;;;;6.78;3.80;;;;;;;;;;5114643;28;20020;-61
2023/05/05 08:10:01;;;;;;;6.32;3.80;;;;;;;;;;5115449;28;20031;-62
2023/05/05 08:12:27;;;;;;;5.75;3.47;;;;;;;;;;5114306;28;20024;-62
2023/05/05 08:14:53;;;;;;;15.25;4.45;;;;;;;;;;5126051;27;20474;-62
2023/05/05 08:17:19;;;;;;;8.52;3.92;;;;;;;;;;5121614;27;20110;-62
2023/05/05 08:19:45;;;;;;;5.95;2.95;;;;;;;;;;5114350;28;20024;-62
2023/05/05 08:22:11;;;;;;;10.15;3.25;;;;;;;;;;5114882;28;20578;-62
2023/05/05 08:24:36;;;;;;;6.25;3.45;;;;;;;;;;5114330;27;20028;-66
2023/05/05 08:27:02;;;;;;;8.52;3.60;;;;;;;;;;5114312;28;20039;-65
2023/05/05 08:29:28;;;;;;;7.35;3.75;;;;;;;;;;5113448;28;20030;-64
2023/05/05 08:31:55;;;;;;;9.75;3.85;;;;;;;;;;5114368;27;20102;-64
2023/05/05 08:34:21;;;;;;;5.90;3.30;;;;;;;;;;5111884;27;20040;-62
2023/05/05 08:36:47;;;;;;;6.00;3.42;;;;;;;;;;5127913;27;20441;-61
2023/05/05 08:39:13;;;;;;;8.00;3.80;;;;;;;;;;5118081;27;20054;-62
2023/05/05 08:41:39;;;;;;;6.30;3.22;;;;;;;;;;5129945;27;20030;-64
2023/05/05 08:44:07;;;;;;;7.88;3.45;;;;;;;;;;5123356;27;20020;-62
2023/05/05 08:46:35;;;;;;;6.03;3.13;;;;;;;;;;5113483;27;20059;-66
2023/05/05 08:49:02;;;;;;;7.53;3.45;;;;;;;;;;5114680;28;20026;-63
2023/05/05 08:51:31;;;;;;;7.45;3.70;;;;;;;;;;5114394;28;20052;-62
2023/05/05 08:53:57;;;;;;;5.65;3.47;;;;;;;;;;5114098;28;20472;-62
2023/05/05 08:56:30;;;;;;;6.57;3.85;;;;;;;;;;5114102;27;20086;-62
2023/05/05 08:58:56;;;;;;;6.05;3.90;;;;;;;;;;5113546;28;20548;-62
2023/05/05 09:01:23;;;;;;;6.35;3.50;;;;;;;;;;5113409;28;20115;-62
2023/05/05 09:03:49;;;;;;;5.80;3.53;;;;;;;;;;5113826;28;20115;-62
2023/05/05 09:06:15;;;;;;;7.00;4.32;;;;;;;;;;5114165;28;20019;-62
2023/05/05 09:08:42;;;;;;;4.93;3.35;;;;;;;;;;5113600;28;20031;-62
2023/05/05 09:11:08;;;;;;;6.35;3.47;;;;;;;;;;5113477;28;20028;-64
2023/05/05 09:13:34;;;;;;;8.20;3.28;;;;;;;;;;5114216;28;20031;-62
2023/05/05 09:16:00;;;;;;;5.65;3.17;;;;;;;;;;5114101;28;20034;-62
2023/05/05 09:18:26;;;;;;;11.27;3.42;;;;;;;;;;5113838;28;20031;-63
2023/05/05 09:20:52;;;;;;;7.97;3.40;;;;;;;;;;5113402;28;20514;-62
2023/05/05 09:23:19;;;;;;;5.18;3.40;;;;;;;;;;5113665;27;20027;-62
2023/05/05 09:26:01;;;;;;;6.95;3.65;;;;;;;;;;5113247;28;20103;-62
2023/05/05 09:28:27;;;;;;;5.65;3.15;;;;;;;;;;5112253;28;20059;-63
2023/05/05 09:30:53;;;;;;;5.43;3.50;;;;;;;;;;5112692;28;20043;-65
2023/05/05 09:33:32;;;;;;;5.32;2.95;;;;;;;;;;5112992;28;20068;-62
2023/05/05 09:35:58;;;;;;;9.68;3.67;;;;;;;;;;5101551;28;20089;-62
2023/05/05 09:38:24;;;;;;;6.82;3.08;;;;;;;;;;5113058;28;20484;-63
2023/05/05 09:40:51;;;;;;;5.45;3.90;;;;;;;;;;5113108;28;20035;-63
2023/05/05 09:43:18;;;;;;;4.65;2.88;;;;;;;;;;5112958;28;20023;-62
2023/05/05 09:45:44;;;;;;;5.25;3.58;;;;;;;;;;5112986;28;20027;-66
2023/05/05 09:48:26;;;;;;;5.00;3.30;;;;;;;;;;5113204;28;20403;-62
2023/05/05 09:50:53;;;;;;;4.72;2.97;;;;;;;;;;5112926;28;20031;-62
2023/05/05 09:53:19;;;;;;;3.75;2.70;;;;;;;;;;5113274;28;20043;-62
2023/05/05 09:56:12;;;;;;;5.25;3.90;;;;;;;;;;5111540;28;20467;-66
2023/05/05 09:58:38;;;;;;;4.88;3.22;;;;;;;;;;5108824;28;20408;-63
2023/05/05 10:01:04;;;;;;;4.90;3.08;;;;;;;;;;5112840;28;20028;-62
2023/05/05 10:03:30;;;;;;;5.55;3.45;;;;;;;;;;5112458;28;20015;-62
2023/05/05 10:05:58;;;;;;;4.97;3.15;;;;;;;;;;5112768;28;20027;-63
2023/05/05 10:08:32;;;;;;;4.72;3.00;;;;;;;;;;5112902;28;20028;-66
2023/05/05 10:11:05;;;;;;;6.63;3.30;;;;;;;;;;5112162;28;20022;-66
2023/05/05 10:13:33;;;;;;;6.25;3.40;;;;;;;;;;5112503;28;20028;-66
2023/05/05 10:16:00;;;;;;;4.60;3.13;;;;;;;;;;5112237;28;20035;-66
2023/05/05 10:18:27;;;;;;;5.40;3.67;;;;;;;;;;5112235;28;20023;-62
2023/05/05 10:20:57;;;;;;;6.70;4.10;;;;;;;;;;5111467;28;20041;-66
2023/05/05 10:23:24;;;;;;;4.78;3.20;;;;;;;;;;5112541;28;20015;-62
2023/05/05 10:25:54;;;;;;;6.05;3.42;;;;;;;;;;5112110;28;20107;-63
2023/05/05 10:28:28;;;;;;;4.65;3.15;;;;;;;;;;5112352;28;20110;-63
2023/05/05 10:30:56;;;;;;;6.20;2.90;;;;;;;;;;5112297;28;20028;-64
2023/05/05 10:33:26;;;;;;;5.38;3.47;;;;;;;;;;5112364;27;20023;-63
2023/05/05 10:35:55;;;;;;;5.45;3.10;;;;;;;;;;5111409;28;20407;-63
2023/05/05 10:38:22;;;;;;;6.30;3.15;;;;;;;;;;5111845;28;20020;-64
2023/05/05 10:40:48;;;;;;;4.90;3.42;;;;;;;;;;5111966;28;20032;-63
2023/05/05 10:43:14;;;;;;;5.93;3.58;;;;;;;;;;5112282;28;20022;-62
2023/05/05 10:45:41;;;;;;;9.27;3.40;;;;;;;;;;5111851;28;20031;-63
2023/05/05 10:48:10;;;;;;;5.32;2.85;;;;;;;;;;5112127;28;20068;-62
2023/05/05 10:50:41;;;;;;;5.03;2.75;;;;;;;;;;5111361;28;20020;-64
2023/05/05 10:53:18;;;;;;;6.13;3.00;;;;;;;;;;5110647;28;20023;-62
2023/05/05 10:55:53;;;;;;;4.40;2.92;;;;;;;;;;5111808;28;20467;-61
2023/05/05 10:58:32;;;;;;;5.07;2.57;;;;;;;;;;5112031;28;20399;-63
2023/05/05 11:00:58;;;;;;;5.35;2.83;;;;;;;;;;5111736;28;20045;-61
2023/05/05 11:03:25;;;;;;;5.72;3.22;;;;;;;;;;5111868;28;20402;-64
2023/05/05 11:06:03;;;;;;;5.88;3.30;;;;;;;;;;5111488;28;20023;-63
2023/05/05 11:08:39;;;;;;;6.30;2.80;;;;;;;;;;5091581;28;20028;-62
2023/05/05 11:11:05;;;;;;;5.47;2.90;;;;;;;;;;5107405;28;20032;-64
2023/05/05 11:13:31;;;;;;;4.80;2.78;;;;;;;;;;5111951;28;20039;-62
2023/05/05 11:15:58;;;;;;;6.35;2.80;;;;;;;;;;5110565;28;20445;-65
2023/05/05 11:18:35;;;;;;;5.32;2.58;;;;;;;;;;5111230;28;20031;-62
2023/05/05 11:21:01;;;;;;;6.50;3.55;;;;;;;;;;5111680;28;20051;-63
2023/05/05 11:23:27;;;;;;;5.13;3.00;;;;;;;;;;5111661;28;20107;-63
2023/05/05 11:25:54;;;;;;;4.50;2.70;;;;;;;;;;5111058;28;20451;-64
2023/05/05 11:28:23;;;;;;;5.13;2.95;;;;;;;;;;5107438;28;20066;-62
2023/05/05 11:30:55;;;;;;;5.60;3.67;;;;;;;;;;5110640;28;20482;-64
2023/05/05 11:33:38;;;;;;;3.85;2.65;;;;;;;;;;5109401;28;20111;-62
2023/05/05 11:36:07;;;;;;;3.92;2.75;;;;;;;;;;5109121;28;20529;-64
2023/05/05 11:38:45;;;;;;;5.22;3.35;;;;;;;;;;5109793;28;20070;-61
2023/05/05 11:41:15;;;;;;;4.57;2.60;;;;;;;;;;5108548;28;20368;-62
2023/05/05 11:43:41;;;;;;;4.10;2.50;;;;;;;;;;5106813;28;20111;-62
2023/05/05 11:46:14;;;;;;;6.60;2.70;;;;;;;;;;5111290;28;20027;-61
2023/05/05 11:48:44;;;;;;;7.93;2.95;;;;;;;;;;5109693;28;20031;-63
2023/05/05 11:51:12;;;;;;;6.22;2.72;;;;;;;;;;5110757;28;20035;-62
2023/05/05 11:53:41;;;;;;;8.52;2.75;;;;;;;;;;5109772;28;20039;-64
2023/05/05 11:56:08;;;;;;;5.60;3.10;;;;;;;;;;5093924;28;20044;-62
2023/05/05 11:58:34;;;;;;;7.20;3.00;;;;;;;;;;5099875;28;20028;-62
2023/05/05 12:01:04;;;;;;;4.53;2.92;;;;;;;;;;5110321;28;20024;-62
2023/05/05 12:03:33;;;;;;;4.75;2.50;;;;;;;;;;5111246;28;20027;-63
2023/05/05 12:06:00;;;;;;;10.27;2.83;;;;;;;;;;5109582;28;20031;-61
2023/05/05 12:08:26;;;;;;;6.45;2.63;;;;;;;;;;5109125;28;20069;-61
2023/05/05 12:10:52;;;;;;;4.70;2.20;;;;;;;;;;5110117;28;20095;-61
2023/05/05 12:13:19;;;;;;;7.30;2.53;;;;;;;;;;5110378;28;20027;-61
2023/05/05 12:15:45;;;;;;;6.63;2.53;;;;;;;;;;5110212;28;20078;-62
2023/05/05 12:18:18;;;;;;;3.92;2.15;;;;;;;;;;5110949;28;20035;-61
2023/05/05 12:20:43;;;;;;;4.72;2.53;;;;;;;;;;5110545;28;20027;-61
2023/05/05 12:23:11;;;;;;;4.25;2.30;;;;;;;;;;5114144;28;20429;-61
2023/05/05 12:25:39;;;;;;;5.50;2.33;;;;;;;;;;5114630;28;20019;-62
2023/05/05 12:28:09;;;;;;;4.22;2.20;;;;;;;;;;5114309;28;20414;-61
2023/05/05 12:30:35;;;;;;;3.00;1.98;;;;;;;;;;5114553;28;20080;-61
2023/05/05 12:33:02;;;;;;;4.55;2.35;;;;;;;;;;5115007;28;20027;-62
2023/05/05 12:35:29;;;;;;;4.55;2.13;;;;;;;;;;5114507;28;20031;-61
2023/05/05 12:37:55;;;;;;;3.53;1.63;;;;;;;;;;5114463;28;20036;-61
2023/05/05 12:40:39;;;;;;;3.25;1.92;;;;;;;;;;5114161;27;20053;-61
2023/05/05 12:43:05;;;;;;;3.47;1.80;;;;;;;;;;5114360;28;20031;-61
2023/05/05 12:45:31;;;;;;;5.03;1.80;;;;;;;;;;5114742;28;20030;-62
2023/05/05 12:47:57;;;;;;;4.72;2.13;;;;;;;;;;5114235;28;20089;-62
2023/05/05 12:50:32;;;;;;;3.17;1.80;;;;;;;;;;5114365;28;20460;-62
2023/05/05 12:52:58;;;;;;;3.67;1.85;;;;;;;;;;5114080;28;20035;-62
2023/05/05 12:55:38;;;;;;;4.88;1.80;;;;;;;;;;5113780;28;20023;-65
2023/05/05 12:58:04;;;;;;;3.38;1.77;;;;;;;;;;5113996;28;20059;-62
2023/05/05 13:00:30;;;;;;;4.90;2.10;;;;;;;;;;5114269;28;20019;-63
2023/05/05 13:02:56;;;;;;;4.22;1.55;;;;;;;;;;5113843;28;20476;-65
2023/05/05 13:05:32;;;;;;;3.78;1.90;;;;;;;;;;5114025;28;20395;-62
2023/05/05 13:07:58;;;;;;;2.75;1.50;;;;;;;;;;5113156;28;20093;-63
2023/05/05 13:10:25;;;;;;;3.15;1.60;;;;;;;;;;5113904;28;20042;-62
2023/05/05 13:12:54;;;;;;;4.13;1.98;;;;;;;;;;5113178;27;20032;-62
2023/05/05 13:15:20;;;;;;;3.22;1.77;;;;;;;;;;5113916;28;20031;-61
2023/05/05 13:17:46;;;;;;;5.20;2.05;;;;;;;;;;5113558;27;20114;-62
2023/05/05 13:20:12;;;;;;;3.38;2.10;;;;;;;;;;5113613;28;20035;-62
2023/05/05 13:22:38;;;;;;;5.85;2.00;;;;;;;;;;5113502;28;20031;-62
2023/05/05 13:25:04;;;;;;;4.53;2.45;;;;;;;;;;5113991;28;20486;-62
2023/05/05 13:27:30;;;;;;;2.42;1.40;;;;;;;;;;5113684;28;20031;-63
2023/05/05 13:29:56;;;;;;;5.05;1.98;;;;;;;;;;5113438;28;20031;-62
2023/05/05 13:32:22;;;;;;;3.83;1.92;;;;;;;;;;5113424;28;20027;-62
2023/05/05 13:34:48;;;;;;;3.55;2.00;;;;;;;;;;5113368;28;20024;-62
2023/05/05 13:37:14;;;;;;;2.58;1.60;;;;;;;;;;5113444;28;20387;-62
2023/05/05 13:39:40;;;;;;;4.28;2.03;;;;;;;;;;5113136;28;20421;-62
2023/05/05 13:42:06;;;;;;;3.65;2.35;;;;;;;;;;5112764;28;20452;-63
2023/05/05 13:44:32;;;;;;;3.25;1.80;;;;;;;;;;5113561;28;20058;-66
2023/05/05 13:46:58;;;;;;;4.40;2.33;;;;;;;;;;5113080;28;20031;-63
2023/05/05 13:49:24;;;;;;;3.58;2.08;;;;;;;;;;5113012;28;20031;-62
2023/05/05 13:51:50;;;;;;;3.13;2.28;;;;;;;;;;5112098;28;20133;-62
2023/05/05 13:54:16;;;;;;;3.95;1.55;;;;;;;;;;5112469;28;20027;-62
2023/05/05 13:56:42;;;;;;;3.65;1.85;;;;;;;;;;5112212;28;20046;-63
2023/05/05 13:59:09;;;;;;;3.38;1.80;;;;;;;;;;5108996;28;20026;-63
2023/05/05 14:01:35;;;;;;;4.18;1.70;;;;;;;;;;5111911;28;20044;-63
2023/05/05 14:04:00;;;;;;;3.58;1.65;;;;;;;;;;5112284;28;20030;-63
2023/05/05 14:06:26;;;;;;;3.00;1.58;;;;;;;;;;5109755;28;20483;-62
2023/05/05 14:08:53;;;;;;;2.47;1.42;;;;;;;;;;5111625;28;20024;-63
2023/05/05 14:11:19;;;;;;;2.72;1.70;;;;;;;;;;5111809;28;20490;-65
2023/05/05 14:13:46;;;;;;;3.28;1.38;;;;;;;;;;5110244;28;20023;-62
2023/05/05 14:16:12;;;;;;;3.80;1.48;;;;;;;;;;5111186;28;20043;-65
2023/05/05 14:18:38;;;;;;;5.28;2.63;;;;;;;;;;5107962;28;20031;-64
2023/05/05 14:21:04;;;;;;;2.97;1.50;;;;;;;;;;5108300;28;20036;-62
2023/05/05 14:23:30;;;;;;;4.10;1.90;;;;;;;;;;5108209;28;20046;-62
2023/05/05 14:25:56;;;;;;;2.95;2.03;;;;;;;;;;5108220;28;20120;-63
2023/05/05 14:28:22;;;;;;;2.85;1.70;;;;;;;;;;5111982;28;20066;-63
2023/05/05 14:30:48;;;;;;;2.85;2.20;;;;;;;;;;5112067;28;20073;-63
2023/05/05 14:33:15;;;;;;;2.70;1.77;;;;;;;;;;5112027;28;20023;-63
2023/05/05 14:35:41;;;;;;;4.03;2.00;;;;;;;;;;5111415;28;20035;-64
2023/05/05 14:38:07;;;;;;;2.92;1.77;;;;;;;;;;5111831;28;20023;-62
2023/05/05 14:40:33;;;;;;;2.97;1.75;;;;;;;;;;5112488;28;20053;-62
2023/05/05 14:42:59;;;;;;;3.08;1.85;;;;;;;;;;5112367;28;20050;-65
2023/05/05 14:45:28;;;;;;;3.38;2.05;;;;;;;;;;5111503;28;20468;-62